Latest Weather Observations for Port Hedland

IDW60801

Issued at 9:32 pm WST Friday 19 December 2014 (issued every 30 minutes, with the page automatically refreshed every 10 minutes)

About weather observations | Map of weather stations | Latest weather observations for WA | Other Formats
Station Details ID: 004032 Name: PORT HEDLAND AIRPORT Lat: -20.37 Lon: 118.63 Height: 6.4 m
Data from the previous 72 hours. | See also: Recent months at Port Hedland
Date/Time
WST
Temp
°C
App
Temp
°C
Dew
Point
Rel
Hum
%
Delta-T
°C
Wind Press
QNH
hPa
Press
MSL
hPa
Rain
since 9 am
mm
Dir
 
Spd
km/h
Gust
km/h
Spd
kts
Gust
kts
19/09:30pm 27.9 28.9 21.1 66 4.5 WNW 17 22 9 12 1010.9 - 0.0
19/09:00pm 28.1 28.8 21.5 67 4.4 WNW 20 26 11 14 1010.6 1010.5 0.0
19/08:30pm 28.2 28.4 22.0 69 4.2 WNW 24 32 13 17 1010.2 - 0.0
19/08:00pm 28.3 28.4 21.9 68 4.3 WNW 24 32 13 17 1010.0 - 0.0
19/07:30pm 28.5 28.9 22.5 70 4.1 WNW 24 30 13 16 1010.1 - 0.0
19/07:00pm 28.8 29.2 21.8 66 4.7 NW 22 28 12 15 1009.9 - 0.0
19/06:30pm 29.3 29.4 21.9 64 5.0 NNW 24 30 13 16 1009.4 - 0.0
19/06:00pm 30.0 30.0 21.7 61 5.6 NNW 24 30 13 16 1009.3 1009.2 0.0
19/05:30pm 30.7 30.3 21.7 58 6.1 NNW 26 35 14 19 1009.3 - 0.0
19/05:00pm 31.4 30.8 21.3 55 6.8 NNW 26 33 14 18 1009.1 - 0.0
19/04:30pm 31.9 31.1 20.9 52 7.4 NNW 26 33 14 18 1008.7 - 0.0
19/04:00pm 32.7 30.7 18.4 42 9.3 N 26 35 14 19 1008.7 - 0.0
19/03:30pm 34.4 33.0 18.9 40 10.2 NNW 24 32 13 17 1008.6 - 0.0
19/03:00pm 33.5 32.6 21.4 49 8.2 NNW 28 33 15 18 - - 0.0
19/02:30pm 33.9 31.7 16.8 36 10.9 NNW 24 33 13 18 - - 0.0
19/02:00pm 33.6 32.0 18.4 40 9.9 NNW 24 33 13 18 - - 0.0
19/01:30pm 33.6 32.1 18.6 41 9.8 NNW 24 33 13 18 - - 0.0
19/01:00pm 33.1 31.3 18.7 42 9.4 NNW 26 35 14 19 - - 0.0
19/12:30pm 34.4 33.0 18.8 39 10.2 N 24 33 13 18 - - 0.0
19/12:00pm 33.5 33.0 19.0 42 9.5 NNW 20 30 11 16 - - 0.0
19/11:30am 32.4 31.9 19.1 45 8.7 N 20 30 11 16 - - 0.0
19/11:00am 32.4 32.2 19.8 47 8.3 NNW 20 28 11 15 - - 0.0
19/10:30am 31.9 31.9 20.1 49 7.8 NNW 20 30 11 16 - - 0.0
19/10:00am 31.9 32.2 21.5 54 7.0 N 22 26 12 14 - - 0.0
19/09:30am 31.2 32.1 21.9 57 6.3 N 20 28 11 15 - - 0.0
19/09:00am 31.6 32.1 21.2 54 7.0 NW 20 22 11 12 - - 0.0
19/08:30am 30.8 32.5 22.4 61 5.7 NNW 17 24 9 13 - - 0.0
19/08:00am 30.3 32.3 22.2 62 5.5 NNW 15 22 8 12 - - 0.0
19/07:30am 29.7 31.3 22.8 66 4.7 NW 19 22 10 12 - - 0.0
19/07:00am 29.1 31.1 22.9 69 4.2 NW 17 22 9 12 - - 0.0
19/06:30am 28.3 31.4 23.5 75 3.3 NW 13 17 7 9 - - 0.0
19/06:00am 25.9 30.4 23.6 87 1.6 NNW 6 11 3 6 - - 0.0
19/05:30am 24.5 27.9 22.7 90 1.2 NW 9 11 5 6 - - 0.0
19/05:00am 24.2 27.2 22.6 91 1.1 WNW 11 13 6 7 - - 0.0
19/04:30am 24.4 27.0 22.6 90 1.2 W 13 15 7 8 - - 0.0
19/04:00am 24.5 27.1 22.6 89 1.3 NW 13 15 7 8 - - 0.0
19/03:30am 24.6 27.5 22.4 87 1.5 NNW 11 11 6 6 - - 0.0
19/03:00am 24.8 28.0 22.3 86 1.7 NW 9 11 5 6 - - 0.0
19/02:30am 24.9 28.1 22.4 86 1.7 NW 9 9 5 5 - - 0.0
19/02:00am 25.4 29.1 22.6 84 1.9 NNW 7 9 4 5 - - 0.0
19/01:30am 25.6 28.7 22.8 84 1.9 NNW 11 11 6 6 - - 0.0
19/01:00am 25.3 28.8 22.8 86 1.7 WNW 9 11 5 6 - - 0.0
19/12:30am 25.7 29.0 23.2 86 1.7 WNW 11 13 6 7 - - 0.0
19/12:00am 26.2 29.7 23.6 85 1.8 NW 11 15 6 8 - - 0.0
 
Date/Time
WST
Temp
°C
App
Temp
°C
Dew
Point
Rel
Hum
%
Delta-T
°C
Wind Press
QNH
hPa
Press
MSL
hPa
Rain
since 9 am
mm
Dir
 
Spd
km/h
Gust
km/h
Spd
kts
Gust
kts
18/11:30pm 26.5 29.9 24.0 86 1.7 WNW 13 15 7 8 - - 0.0
18/11:00pm 26.6 30.0 24.0 86 1.8 NW 13 17 7 9 - - 0.0
18/10:30pm 26.9 30.0 24.1 85 1.9 WNW 15 20 8 11 - - 0.0
18/10:00pm 27.1 29.5 24.2 84 2.0 NW 19 24 10 13 - - 0.0
18/09:30pm 27.2 29.0 24.3 84 2.0 NW 22 28 12 15 - - 0.0
18/09:00pm 27.2 29.0 24.2 84 2.1 NW 22 26 12 14 - - 0.0
18/08:30pm 27.3 29.3 24.0 82 2.3 NW 20 26 11 14 - - 0.0
18/08:00pm 27.5 28.8 24.0 81 2.4 NW 24 32 13 17 - - 0.0
18/07:30pm 27.6 28.7 24.3 82 2.3 NW 26 33 14 18 - - 0.0
18/07:00pm 27.9 28.9 24.1 80 2.6 NNW 26 32 14 17 - - 0.0
18/06:30pm 28.1 29.0 24.0 78 2.8 NNW 26 33 14 18 - - 0.0
18/06:00pm 28.5 28.2 23.9 76 3.2 NNW 32 39 17 21 - - 0.0
18/05:30pm 29.7 29.2 23.6 69 4.2 NNW 32 41 17 22 - - 0.0
18/05:00pm 29.7 29.0 23.6 69 4.2 N 33 41 18 22 - - 0.0
18/04:30pm 30.4 29.8 23.4 66 4.8 N 32 41 17 22 - - 0.0
18/04:00pm 30.5 29.7 23.1 64 5.1 NNW 32 41 17 22 - - 0.0
18/03:30pm 30.5 29.6 22.9 64 5.2 N 32 39 17 21 - - 0.0
18/03:00pm 32.0 31.7 23.2 59 6.1 NNW 30 43 16 23 1006.0 - 0.0
18/02:30pm 32.4 32.0 23.0 57 6.5 NNW 30 39 16 21 1006.0 - 0.0
18/02:00pm 31.8 31.7 22.9 59 6.1 NNW 28 35 15 19 1006.0 - 0.0
18/01:30pm 32.2 32.3 22.6 57 6.6 NNW 26 35 14 19 - - 0.0
18/01:00pm 32.8 32.9 22.6 55 7.0 NNW 26 33 14 18 1006.0 - 0.0
18/12:30pm 32.3 32.7 23.2 58 6.3 NNW 26 33 14 18 1007.0 - 0.0
18/12:00pm 31.7 32.5 23.1 60 5.9 N 24 35 13 19 1007.0 - 0.0
18/11:30am 31.7 32.4 23.0 60 6.0 NW 24 32 13 17 1007.0 - 0.0
18/11:00am 32.2 33.7 23.1 58 6.3 NNW 20 28 11 15 1007.0 - 0.0
18/10:30am 31.1 32.5 22.9 61 5.6 NNW 20 30 11 16 1007.0 - 0.0
18/10:00am 32.7 33.7 22.8 56 6.8 NNW 22 26 12 14 1007.0 - 0.0
18/09:30am 31.2 32.5 22.7 60 5.8 NNW 20 28 11 15 1007.0 - 0.0
18/09:00am 31.5 32.8 22.6 59 6.1 NW 20 37 11 20 1007.0 - 0.0
18/08:30am 30.9 31.1 22.0 59 6.0 NW 24 32 13 17 1007.0 - 0.0
18/08:00am 30.8 30.8 21.6 58 6.2 W 24 28 13 15 1007.0 - 0.0
18/07:30am 29.9 29.9 21.6 61 5.6 W 24 30 13 16 1007.0 - 0.0
18/07:00am 29.1 29.3 22.0 65 4.8 WNW 24 32 13 17 1007.0 - 0.0
18/06:30am 28.1 29.4 22.3 70 3.9 WNW 19 24 10 13 1007.0 - 0.0
18/06:00am 26.7 28.7 23.0 80 2.5 WNW 17 20 9 11 1006.0 - 0.0
18/05:30am 26.0 28.3 23.4 85 1.8 WNW 17 20 9 11 - - 0.0
18/05:00am 26.0 28.1 23.1 84 2.0 WNW 17 24 9 13 - - 0.0
18/04:30am 26.3 27.6 23.4 84 2.0 NW 22 28 12 15 - - 0.0
18/04:00am 26.2 27.8 23.3 84 2.0 NW 20 26 11 14 - - 0.0
18/03:30am 26.3 27.7 22.8 81 2.4 NW 20 26 11 14 - - 0.0
18/03:00am 26.4 27.9 23.0 81 2.3 NW 20 26 11 14 - - 0.0
18/02:30am 26.3 27.9 22.9 81 2.3 NW 19 22 10 12 - - 0.0
18/02:00am 26.6 28.2 22.8 79 2.6 NNW 19 24 10 13 - - 0.0
18/01:30am 26.8 27.9 23.1 80 2.5 NNW 22 28 12 15 - - 0.0
18/01:00am 26.7 28.2 23.0 80 2.5 NW 20 26 11 14 - - 0.0
18/12:30am 26.8 28.6 23.3 81 2.4 NW 19 22 10 12 - - 0.0
18/12:00am 26.8 28.6 23.3 81 2.4 NW 19 24 10 13 - - 0.0
 
Date/Time
WST
Temp
°C
App
Temp
°C
Dew
Point
Rel
Hum
%
Delta-T
°C
Wind Press
QNH
hPa
Press
MSL
hPa
Rain
since 9 am
mm
Dir
 
Spd
km/h
Gust
km/h
Spd
kts
Gust
kts
17/11:30pm 26.8 28.6 23.3 81 2.4 NNW 19 24 10 13 - - 0.0
17/11:00pm 26.9 28.8 23.5 81 2.3 NW 19 24 10 13 - - 0.0
17/10:30pm 26.9 29.3 23.7 82 2.2 NW 17 24 9 13 - - 0.0
17/10:00pm 27.0 28.8 23.6 81 2.3 NW 20 26 11 14 - - 0.0
17/09:30pm 27.0 29.0 23.6 81 2.3 NW 19 24 10 13 - - 0.0
17/09:00pm 27.1 28.2 23.6 81 2.4 NW 24 30 13 16 - - 0.0
17/08:30pm 27.2 28.1 23.4 80 2.6 NW 24 30 13 16 - - 0.0
17/08:00pm 27.2 28.5 23.4 80 2.6 NW 22 30 12 16 - - 0.0
17/07:30pm 27.3 28.9 23.3 79 2.7 NW 20 28 11 15 - - 0.0
17/07:00pm 27.6 29.2 23.2 77 3.0 NNW 20 28 11 15 - - 0.0
17/06:30pm 27.9 28.3 22.4 72 3.7 NNW 24 32 13 17 - - 0.0
17/06:00pm 28.4 28.2 22.8 71 3.8 NNW 28 33 15 18 - - 0.0
17/05:30pm 29.4 29.3 22.2 65 4.9 NNW 26 32 14 17 - - 0.0
17/05:00pm 29.7 30.0 22.2 64 5.1 NNW 24 32 13 17 - - 0.0
17/04:30pm 30.2 29.8 21.7 60 5.7 NNW 26 33 14 18 - - 0.0
17/04:00pm 30.0 28.9 21.7 61 5.6 NNW 30 39 16 21 - - 0.0
17/03:30pm 30.6 29.8 21.7 59 6.0 NNW 28 37 15 20 - - 0.0
17/03:00pm 31.2 30.6 21.9 57 6.3 NNW 28 39 15 21 1004.0 - 0.0
17/02:30pm 31.8 31.6 22.1 56 6.6 NW 26 41 14 22 1004.0 - 0.0
17/02:00pm 31.6 31.6 21.7 55 6.7 NW 24 37 13 20 1004.0 - 0.0
17/01:30pm 31.7 31.2 22.1 56 6.5 NW 28 39 15 21 1004.0 - 0.0
17/01:00pm 31.8 31.7 21.4 54 7.0 WNW 24 30 13 16 1004.0 - 0.0
17/12:30pm 31.5 31.0 21.4 55 6.8 NNW 26 35 14 19 1005.0 - 0.0
17/12:00pm 32.5 32.0 21.4 52 7.5 NNW 26 35 14 19 1005.0 - 0.0
17/11:30am 32.1 31.9 21.2 52 7.3 NNW 24 33 13 18 1005.0 - 0.0
17/11:00am 30.9 30.8 21.5 57 6.3 NW 24 32 13 17 1005.0 - 0.0
17/10:30am 31.3 31.1 21.2 55 6.8 NNW 24 35 13 19 - - 0.0
17/10:00am 31.5 31.3 21.2 54 6.9 NW 24 32 13 17 1006.0 - 0.0
17/09:30am 31.5 31.5 21.6 55 6.7 NW 24 33 13 18 1006.0 - 0.0
17/09:00am 29.8 30.0 21.4 60 5.6 NW 22 32 12 17 1006.0 - 0.0
17/08:30am 30.2 30.5 21.6 60 5.8 NW 22 32 12 17 1006.0 - 0.0
17/08:00am 29.1 29.5 21.8 64 4.9 WNW 22 30 12 16 1006.0 - 0.0
17/07:30am 28.3 28.4 21.9 68 4.3 WNW 24 32 13 17 1006.0 - 0.0
17/07:00am 27.8 28.5 22.3 72 3.7 WNW 22 28 12 15 - - 0.0
17/06:30am 27.5 27.8 22.3 73 3.5 WNW 24 30 13 16 1005.0 - 0.0
17/06:00am 26.6 28.2 22.8 79 2.6 WNW 19 24 10 13 1005.0 - 0.0
17/05:30am 25.9 27.7 22.5 81 2.3 WNW 17 24 9 13 - - 0.0
17/05:00am 26.0 27.1 22.3 80 2.5 WNW 20 24 11 13 - - 0.0
17/04:30am 26.0 26.6 22.1 79 2.6 NW 22 30 12 16 - - 0.0
17/04:00am 26.1 27.1 22.2 79 2.6 NW 20 26 11 14 - - 0.0
17/03:30am 26.1 27.2 22.4 80 2.5 NW 20 26 11 14 - - 0.0
17/03:00am 26.1 27.3 22.1 78 2.7 WNW 19 24 10 13 - - 0.0
17/02:30am 26.2 27.0 21.7 76 3.0 WNW 20 28 11 15 - - 0.0
17/02:00am 26.3 26.6 21.6 75 3.1 WNW 22 30 12 16 - - 0.0
17/01:30am 26.3 27.0 21.5 75 3.2 WNW 20 28 11 15 - - 0.0
17/01:00am 26.5 27.1 21.4 73 3.4 WNW 20 28 11 15 - - 0.0
17/12:30am 26.5 27.2 21.5 74 3.3 NW 20 26 11 14 - - 0.0
17/12:00am 26.6 27.5 22.0 76 3.1 NW 20 24 11 13 - - 0.0
 
Date/Time
WST
Temp
°C
App
Temp
°C
Dew
Point
Rel
Hum
%
Delta-T
°C
Wind Press
QNH
hPa
Press
MSL
hPa
Rain
since 9 am
mm
Dir
 
Spd
km/h
Gust
km/h
Spd
kts
Gust
kts
16/11:30pm 26.7 27.8 22.4 77 2.9 WNW 20 24 11 13 - - 0.0
16/11:00pm 26.7 28.4 22.4 77 2.9 WNW 17 24 9 13 - - 0.0
16/10:30pm 26.9 28.5 22.8 78 2.8 NW 19 24 10 13 - - 0.0
16/10:00pm 27.0 28.6 22.9 78 2.8 NW 19 24 10 13 - - 0.0

Other Formats:

Comma delimited format used in spreadsheet applications
http://www.bom.gov.au/fwo/IDW60801/IDW60801.94312.axf

JavaScript Object Notation format (JSON) in row-major order
http://www.bom.gov.au/fwo/IDW60801/IDW60801.94312.json